createdAt,value
2023-01-04T00:00:12.369Z,100781.72
2023-01-04T00:02:40.471Z,100772.97
2023-01-04T00:05:08.999Z,100780.16
2023-01-04T00:07:36.927Z,100784.81
2023-01-04T00:10:05.228Z,100779.47
2023-01-04T00:12:33.198Z,100776.06
2023-01-04T00:15:01.155Z,100782.66
2023-01-04T00:17:30.509Z,100784.75
2023-01-04T00:19:58.466Z,100799.22
2023-01-04T00:22:26.415Z,100799.94
2023-01-04T00:24:54.363Z,100803.59
2023-01-04T00:27:22.292Z,100801.91
2023-01-04T00:29:50.254Z,100803.59
2023-01-04T00:32:18.207Z,100806.50
2023-01-04T00:34:47.557Z,100809.44
2023-01-04T00:37:15.521Z,100814.47
2023-01-04T00:39:43.493Z,100811.06
2023-01-04T00:42:11.389Z,100815.56
2023-01-04T00:44:39.363Z,100824.81
2023-01-04T00:47:07.363Z,100821.69
2023-01-04T00:49:35.336Z,100820.50
2023-01-04T00:52:04.728Z,100826.38
2023-01-04T00:54:32.707Z,100823.22
2023-01-04T00:57:01.369Z,100823.50
2023-01-04T00:59:29.404Z,100821.72
2023-01-04T01:01:57.469Z,100818.19
2023-01-04T01:04:25.572Z,100816.50
2023-01-04T01:06:53.621Z,100815.31
2023-01-04T01:09:23.845Z,100817.97
2023-01-04T01:11:52.128Z,100816.41
2023-01-04T01:14:20.822Z,100815.78
2023-01-04T01:16:58.161Z,100815.34
2023-01-04T01:19:27.053Z,100822.38
2023-01-04T01:21:56.480Z,100823.34
2023-01-04T01:24:25.877Z,100819.22
2023-01-04T01:26:53.846Z,100823.13
2023-01-04T01:29:21.769Z,100818.03
2023-01-04T01:31:49.902Z,100819.00
2023-01-04T01:34:17.947Z,100820.16
2023-01-04T01:36:45.908Z,100821.88
2023-01-04T01:39:13.866Z,100820.16
2023-01-04T01:41:43.136Z,100816.81
2023-01-04T01:44:44.049Z,100821.41
2023-01-04T01:47:12.481Z,100820.69
2023-01-04T01:49:40.536Z,100819.25
2023-01-04T01:52:10.290Z,100828.22
2023-01-04T01:54:40.660Z,100822.88
2023-01-04T01:57:11.107Z,100823.84
2023-01-04T01:59:39.917Z,100816.94
2023-01-04T02:02:07.952Z,100824.81
2023-01-04T02:04:36.095Z,100827.25
2023-01-04T02:07:04.020Z,100830.50
2023-01-04T02:09:32.003Z,100825.31
2023-01-04T02:11:59.990Z,100835.00
2023-01-04T02:14:29.801Z,100830.84
2023-01-04T02:17:05.863Z,100827.19
2023-01-04T02:19:50.352Z,100822.38
2023-01-04T02:22:31.299Z,100815.81
2023-01-04T02:25:23.545Z,100810.34
2023-01-04T02:27:53.503Z,100812.91
2023-01-04T02:30:53.852Z,100813.91
2023-01-04T02:33:30.663Z,100798.66
2023-01-04T02:36:01.331Z,100802.00
2023-01-04T02:38:31.937Z,100792.81
2023-01-04T02:41:04.894Z,100793.78
2023-01-04T02:43:51.928Z,100771.00
2023-01-04T02:46:24.117Z,100787.97
2023-01-04T02:49:09.275Z,100793.03
2023-01-04T02:51:37.949Z,100785.53
2023-01-04T02:54:07.688Z,100788.91
2023-01-04T02:56:44.858Z,100761.53
2023-01-04T02:59:40.855Z,100790.59
2023-01-04T03:02:36.635Z,100772.09
2023-01-04T03:05:24.574Z,100789.91
2023-01-04T03:07:55.004Z,100790.88
2023-01-04T03:10:24.977Z,100778.13
2023-01-04T03:12:54.696Z,100794.50
2023-01-04T03:15:23.934Z,100796.69
2023-01-04T03:17:55.698Z,100785.31
2023-01-04T03:20:24.339Z,100796.94
2023-01-04T03:23:10.884Z,100798.16
2023-01-04T03:25:58.152Z,100795.50
2023-01-04T03:28:44.337Z,100799.97
2023-01-04T03:31:31.645Z,100797.69
2023-01-04T03:34:18.409Z,100810.53
2023-01-04T03:37:04.137Z,100814.19
2023-01-04T03:39:56.204Z,100813.94
2023-01-04T03:42:43.901Z,100824.84
2023-01-04T03:45:34.467Z,100822.66
2023-01-04T03:48:22.799Z,100832.38
2023-01-04T03:50:53.008Z,100826.06
2023-01-04T03:53:21.007Z,100816.22
2023-01-04T03:55:48.925Z,100815.97
2023-01-04T03:58:16.874Z,100818.28
2023-01-04T04:00:44.867Z,100818.50
2023-01-04T04:03:12.841Z,100824.06
2023-01-04T04:05:59.302Z,100815.38
2023-01-04T04:08:31.422Z,100828.19
2023-01-04T04:11:20.108Z,100822.38
2023-01-04T04:13:48.097Z,100831.56
2023-01-04T04:16:16.182Z,100829.84
2023-01-04T04:18:44.184Z,100834.00
2023-01-04T04:21:12.115Z,100842.47
2023-01-04T04:23:41.440Z,100838.63
2023-01-04T04:26:09.371Z,100837.53
2023-01-04T04:28:37.357Z,100831.69
2023-01-04T04:31:05.602Z,100838.84
2023-01-04T04:33:33.510Z,100837.66
2023-01-04T04:36:01.478Z,100844.19
2023-01-04T04:38:29.449Z,100845.78
2023-01-04T04:41:16.342Z,100847.03
2023-01-04T04:43:44.296Z,100845.19
2023-01-04T04:46:13.006Z,100846.44
2023-01-04T04:48:41.015Z,100858.03
2023-01-04T04:51:08.963Z,100858.31
2023-01-04T04:53:36.870Z,100865.56
2023-01-04T04:56:07.659Z,100858.78
2023-01-04T04:58:35.671Z,100861.06
2023-01-04T05:01:03.700Z,100860.72
2023-01-04T05:03:31.709Z,100857.09
2023-01-04T05:05:59.660Z,100857.09
2023-01-04T05:08:27.645Z,100847.13
2023-01-04T05:10:55.617Z,100857.44
2023-01-04T05:13:23.952Z,100849.75
2023-01-04T05:15:52.700Z,100864.06
2023-01-04T05:18:21.515Z,100850.59
2023-01-04T05:20:49.557Z,100861.38
2023-01-04T05:23:18.313Z,100858.91
2023-01-04T05:25:46.290Z,100867.66
2023-01-04T05:28:14.276Z,100860.44
2023-01-04T05:30:51.869Z,100869.66
2023-01-04T05:33:21.142Z,100880.47
2023-01-04T05:35:49.139Z,100869.09
2023-01-04T05:38:17.300Z,100873.00
2023-01-04T05:40:45.233Z,100882.50
2023-01-04T05:43:13.888Z,100886.38
2023-01-04T05:45:44.363Z,100884.56
2023-01-04T05:48:12.346Z,100881.31
2023-01-04T05:50:40.322Z,100891.72
2023-01-04T05:53:08.271Z,100890.75
2023-01-04T05:55:36.294Z,100892.22
2023-01-04T05:58:04.256Z,100900.44
2023-01-04T06:00:32.345Z,100896.53
2023-01-04T06:03:01.856Z,100894.09
2023-01-04T06:05:29.976Z,100892.72
2023-01-04T06:07:57.943Z,100893.78
2023-01-04T06:10:25.866Z,100899.22
2023-01-04T06:12:53.847Z,100896.63
2023-01-04T06:15:21.782Z,100902.44
2023-01-04T06:17:49.734Z,100892.31
2023-01-04T06:20:19.165Z,100900.53
2023-01-04T06:22:47.094Z,100905.94
2023-01-04T06:25:15.049Z,100910.50
2023-01-04T06:27:43.064Z,100907.78
2023-01-04T06:30:11.523Z,100901.88
2023-01-04T06:32:39.477Z,100905.63
2023-01-04T06:35:07.839Z,100918.03
2023-01-04T06:37:37.136Z,100919.38
2023-01-04T06:40:05.936Z,100911.63
2023-01-04T06:42:45.930Z,100916.44
2023-01-04T06:45:13.941Z,100920.44
2023-01-04T06:47:41.997Z,100921.59
2023-01-04T06:50:10.213Z,100928.25
2023-01-04T06:52:39.553Z,100936.00
2023-01-04T06:55:09.545Z,100940.81
2023-01-04T06:57:37.854Z,100938.84
2023-01-04T07:00:08.183Z,100945.03
2023-01-04T07:02:36.319Z,100941.69
2023-01-04T07:05:04.475Z,100927.81
2023-01-04T07:07:33.389Z,100935.72
2023-01-04T07:10:09.598Z,100935.72
2023-01-04T07:12:37.950Z,100932.63
2023-01-04T07:15:39.316Z,100935.06
2023-01-04T07:17:54.733Z,100934.72
2023-01-04T07:20:22.647Z,100932.63
2023-01-04T07:22:50.586Z,100942.13
2023-01-04T07:25:20.011Z,100935.09
2023-01-04T07:27:51.993Z,100936.47
2023-01-04T07:30:20.091Z,100944.69
2023-01-04T07:32:48.071Z,100937.31
2023-01-04T07:35:16.226Z,100939.31
2023-01-04T07:37:44.245Z,100933.38
2023-01-04T07:40:12.737Z,100943.00
2023-01-04T07:42:42.089Z,100938.50
2023-01-04T07:45:10.603Z,100934.66
2023-01-04T07:47:38.569Z,100922.22
2023-01-04T07:50:07.270Z,100938.75
2023-01-04T07:52:35.229Z,100938.13
2023-01-04T07:55:03.174Z,100939.53
2023-01-04T07:57:31.090Z,100945.16
2023-01-04T08:00:00.434Z,100947.66
2023-01-04T08:02:28.502Z,100949.06
2023-01-04T08:04:57.408Z,100952.44
2023-01-04T08:07:25.484Z,100952.16
2023-01-04T08:09:53.474Z,100948.75
2023-01-04T08:12:21.443Z,100952.16
2023-01-04T08:14:49.700Z,100953.28
2023-01-04T08:17:19.037Z,100960.78
2023-01-04T08:19:47.568Z,100969.44
2023-01-04T08:22:15.586Z,100966.34
2023-01-04T08:24:43.631Z,100967.22
2023-01-04T08:27:11.790Z,100970.19
2023-01-04T08:29:39.744Z,100971.78
2023-01-04T08:32:07.954Z,100973.63
2023-01-04T08:34:37.285Z,100968.13
2023-01-04T08:37:05.241Z,100973.19
2023-01-04T08:39:36.178Z,100972.66
2023-01-04T08:42:17.710Z,100976.59
2023-01-04T08:44:48.603Z,100979.72
2023-01-04T08:47:16.540Z,100977.16
2023-01-04T08:49:45.911Z,100975.75
2023-01-04T08:52:15.856Z,100981.13
2023-01-04T08:54:43.850Z,100986.78
2023-01-04T08:57:11.830Z,100988.59
2023-01-04T08:59:39.800Z,100986.06
2023-01-04T09:02:23.533Z,100987.00
2023-01-04T09:04:54.176Z,100989.78
2023-01-04T09:07:22.184Z,100993.19
2023-01-04T09:09:50.153Z,100992.66
2023-01-04T09:12:18.133Z,100982.22
2023-01-04T09:14:46.099Z,100985.22
2023-01-04T09:17:14.026Z,100982.72
2023-01-04T09:19:41.951Z,100980.63
2023-01-04T09:22:11.348Z,100979.34
2023-01-04T09:24:39.313Z,100972.31
2023-01-04T09:27:07.264Z,100972.13
2023-01-04T09:29:35.253Z,100971.44
2023-01-04T09:32:03.282Z,100964.09
2023-01-04T09:34:31.294Z,100971.13
2023-01-04T09:36:59.215Z,100958.47
2023-01-04T09:39:30.609Z,100970.88
2023-01-04T09:41:59.183Z,100962.69
2023-01-04T09:45:12.035Z,100957.91
2023-01-04T09:47:26.967Z,100964.94
2023-01-04T09:49:55.980Z,100963.56
2023-01-04T09:52:25.003Z,100960.75
2023-01-04T09:54:58.891Z,100959.94
2023-01-04T09:57:30.245Z,100954.97
2023-01-04T10:00:00.979Z,100957.09
2023-01-04T10:02:32.467Z,100955.56
2023-01-04T10:05:00.761Z,100960.34
2023-01-04T10:07:29.561Z,100955.72
2023-01-04T10:09:58.901Z,100957.09
2023-01-04T10:12:35.419Z,100942.84
2023-01-04T10:15:16.584Z,100960.09
2023-01-04T10:21:29.432Z,100955.69
2023-01-04T10:23:59.627Z,100941.56
2023-01-04T10:26:31.606Z,100953.13
2023-01-04T10:29:27.117Z,100952.84
2023-01-04T10:31:57.042Z,100952.25
2023-01-04T10:34:26.042Z,100955.94
2023-01-04T10:36:57.041Z,100951.69
2023-01-04T10:39:32.316Z,100943.38
2023-01-04T10:42:09.320Z,100942.66
2023-01-04T10:44:39.597Z,100950.56
2023-01-04T10:47:10.275Z,100938.41
2023-01-04T10:49:42.939Z,100939.25
2023-01-04T10:52:13.094Z,100942.63
2023-01-04T10:54:42.264Z,100944.06
2023-01-04T10:57:13.215Z,100945.16
2023-01-04T10:59:43.670Z,100945.16
2023-01-04T11:02:17.328Z,100941.19
2023-01-04T11:04:48.109Z,100945.25
2023-01-04T11:07:19.353Z,100951.34
2023-01-04T11:09:48.702Z,100945.97
2023-01-04T11:12:18.651Z,100920.00
2023-01-04T11:14:46.667Z,100943.03
2023-01-04T11:17:14.604Z,100936.69
2023-01-04T11:19:42.553Z,100936.97
2023-01-04T11:22:15.032Z,100933.34
2023-01-04T11:25:00.496Z,100936.47
2023-01-04T11:27:33.337Z,100937.47
2023-01-04T11:30:03.953Z,100935.34
2023-01-04T11:32:36.075Z,100928.56
2023-01-04T11:35:04.115Z,100933.38
2023-01-04T11:37:34.510Z,100933.63
2023-01-04T11:40:21.544Z,100937.03
2023-01-04T11:42:52.060Z,100936.75
2023-01-04T11:45:24.863Z,100933.91
2023-01-04T11:47:54.076Z,100927.69
2023-01-04T11:50:40.028Z,100928.38
2023-01-04T11:53:30.493Z,100928.81
2023-01-04T11:56:10.825Z,100936.13
2023-01-04T11:58:40.170Z,100939.06
2023-01-04T12:01:11.872Z,100930.75
2023-01-04T12:03:40.436Z,100933.69
2023-01-04T12:06:11.821Z,100929.75
2023-01-04T12:08:39.822Z,100931.56
2023-01-04T12:11:07.812Z,100930.53
2023-01-04T12:13:35.737Z,100929.97
2023-01-04T12:16:08.812Z,100926.69
2023-01-04T12:18:37.548Z,100911.72
2023-01-04T12:21:05.721Z,100927.47
2023-01-04T12:23:34.484Z,100929.19
2023-01-04T12:26:02.424Z,100929.50
2023-01-04T12:28:34.776Z,100919.03
2023-01-04T12:31:29.421Z,100924.69
2023-01-04T12:33:58.237Z,100929.25
2023-01-04T12:37:04.803Z,100926.72
2023-01-04T12:39:42.831Z,100930.13
2023-01-04T12:42:24.756Z,100921.97
2023-01-04T12:45:16.849Z,100926.81
2023-01-04T12:48:04.639Z,100929.38
2023-01-04T12:50:34.168Z,100942.13
2023-01-04T12:55:55.846Z,100934.63
2023-01-04T13:02:15.841Z,100940.69
2023-01-04T13:04:45.681Z,100939.13
2023-01-04T13:07:17.626Z,100938.28
2023-01-04T13:09:51.073Z,100946.94
2023-01-04T13:12:51.139Z,100954.53
2023-01-04T13:15:23.073Z,100961.63
2023-01-04T13:17:51.011Z,100958.78
2023-01-04T13:20:21.714Z,100964.03
2023-01-04T13:22:52.754Z,100970.09
2023-01-04T13:25:20.771Z,100960.22
2023-01-04T13:28:02.092Z,100960.34
2023-01-04T13:30:32.018Z,100965.72
2023-01-04T13:33:25.614Z,100965.72
2023-01-04T13:36:00.739Z,100949.06
2023-01-04T13:38:28.979Z,100963.44
2023-01-04T13:40:57.008Z,100963.03
2023-01-04T13:43:42.792Z,100961.06
2023-01-04T13:46:14.880Z,100960.50
2023-01-04T13:48:43.820Z,100963.03
2023-01-04T13:51:17.523Z,100969.81
2023-01-04T13:53:53.544Z,100976.56
2023-01-04T13:56:22.833Z,100973.47
2023-01-04T13:58:51.638Z,100976.16
2023-01-04T14:01:22.289Z,100972.63
2023-01-04T14:03:51.317Z,100974.88
2023-01-04T14:06:23.104Z,100972.88
2023-01-04T14:08:56.539Z,100974.84
2023-01-04T14:11:42.899Z,100977.25
2023-01-04T14:14:20.877Z,100972.03
2023-01-04T14:16:49.100Z,100972.47
2023-01-04T14:19:51.229Z,100971.63
2023-01-04T14:22:41.035Z,100987.84
2023-01-04T14:28:49.921Z,100980.31
2023-01-04T14:31:36.958Z,100976.63
2023-01-04T14:34:09.314Z,100975.94
2023-01-04T14:36:37.388Z,100979.25
2023-01-04T14:39:26.787Z,100970.97
2023-01-04T14:41:57.461Z,100975.16
2023-01-04T14:44:27.649Z,100972.50
2023-01-04T14:46:56.590Z,100964.53
2023-01-04T14:49:26.904Z,100968.75
2023-01-04T14:51:55.714Z,100968.75
2023-01-04T14:54:25.842Z,100974.28
2023-01-04T14:56:53.959Z,100973.56
2023-01-04T14:59:23.865Z,100974.53
2023-01-04T15:01:52.517Z,100972.16
2023-01-04T15:04:20.705Z,100977.50
2023-01-04T15:06:50.479Z,100971.25
2023-01-04T15:09:18.391Z,100986.19
2023-01-04T15:11:50.413Z,100981.97
2023-01-04T15:14:18.468Z,100984.22
2023-01-04T15:16:46.437Z,100981.97
2023-01-04T15:19:14.452Z,100984.66
2023-01-04T15:21:42.440Z,100993.25
2023-01-04T15:24:10.573Z,100989.72
2023-01-04T15:26:39.183Z,100990.44
2023-01-04T15:29:08.707Z,100986.19
2023-01-04T15:31:39.790Z,100988.75
2023-01-04T15:34:09.323Z,100992.41
2023-01-04T15:36:40.587Z,100975.91
2023-01-04T15:39:09.125Z,100991.28
2023-01-04T15:41:54.604Z,100993.38
2023-01-04T15:44:23.950Z,100988.56
2023-01-04T15:46:53.211Z,100995.56
2023-01-04T15:49:21.226Z,100989.69
2023-01-04T15:51:49.219Z,100995.88
2023-01-04T15:54:17.564Z,100998.19
2023-01-04T15:56:45.591Z,100995.50
2023-01-04T15:59:13.868Z,101001.97
2023-01-04T16:01:43.347Z,100998.84
2023-01-04T16:04:12.430Z,101004.50
2023-01-04T16:06:40.508Z,101002.38
2023-01-04T16:09:08.454Z,101002.50
2023-01-04T16:11:36.416Z,100998.00
2023-01-04T16:14:04.364Z,100996.44
2023-01-04T16:16:32.843Z,101003.72
2023-01-04T16:19:02.724Z,100997.41
2023-01-04T16:21:31.619Z,101006.16
2023-01-04T16:24:07.212Z,101002.22
2023-01-04T16:26:41.115Z,101009.00
2023-01-04T16:29:09.131Z,101008.03
2023-01-04T16:31:37.529Z,100998.56
2023-01-04T16:34:06.979Z,101009.28
2023-01-04T16:36:34.935Z,101005.09
2023-01-04T16:39:02.929Z,100999.47
2023-01-04T16:41:30.899Z,100998.09
2023-01-04T16:43:59.593Z,101001.63
2023-01-04T16:46:27.868Z,101007.38
2023-01-04T16:48:56.605Z,101008.03
2023-01-04T16:51:26.519Z,101007.56
2023-01-04T16:53:54.584Z,101005.91
2023-01-04T16:56:23.461Z,101010.06
2023-01-04T16:58:51.512Z,101013.72
2023-01-04T17:01:20.435Z,101020.78
2023-01-04T17:03:48.852Z,101013.47
2023-01-04T17:06:17.526Z,101014.06
2023-01-04T17:08:47.660Z,101015.16
2023-01-04T17:12:10.994Z,101013.22
2023-01-04T17:14:04.552Z,101027.03
2023-01-04T17:16:34.919Z,101012.94
2023-01-04T17:19:03.225Z,101025.88
2023-01-04T17:21:34.383Z,101026.13
2023-01-04T17:24:04.557Z,101036.66
2023-01-04T17:26:33.258Z,101031.78
2023-01-04T17:29:01.509Z,101035.16
2023-01-04T17:31:30.417Z,101032.88
2023-01-04T17:33:58.413Z,101037.63
2023-01-04T17:36:26.402Z,101041.56
2023-01-04T17:38:54.351Z,101044.94
2023-01-04T17:41:24.184Z,101038.16
2023-01-04T17:43:52.675Z,101031.97
2023-01-04T17:46:23.304Z,101038.41
2023-01-04T17:48:58.973Z,101035.38
2023-01-04T17:51:40.033Z,101032.34
2023-01-04T17:54:08.502Z,101029.41
2023-01-04T17:56:38.064Z,101030.88
2023-01-04T17:59:06.837Z,101035.38
2023-01-04T18:01:35.365Z,101025.22
2023-01-04T18:04:03.541Z,101025.22
2023-01-04T18:06:33.037Z,101020.66
2023-01-04T18:09:01.107Z,101020.09
2023-01-04T18:11:29.159Z,101011.34
2023-01-04T18:13:58.459Z,101016.44
2023-01-04T18:16:27.213Z,101017.00
2023-01-04T18:18:55.282Z,101018.13
2023-01-04T18:21:28.427Z,101019.50
2023-01-04T18:29:34.592Z,101018.31
2023-01-04T18:32:02.564Z,101010.53
2023-01-04T18:34:30.550Z,101018.00
2023-01-04T18:36:58.545Z,101014.91
2023-01-04T18:39:26.682Z,101011.88
2023-01-04T18:41:54.588Z,101012.72
2023-01-04T18:44:32.680Z,101018.06
2023-01-04T18:47:03.112Z,101017.78
2023-01-04T18:49:31.083Z,101021.56
2023-01-04T18:51:59.122Z,101016.88
2023-01-04T18:54:27.093Z,101023.28
2023-01-04T18:57:00.794Z,101011.41
2023-01-04T18:59:29.565Z,101009.09
2023-01-04T19:02:01.310Z,101011.94
2023-01-04T19:04:32.209Z,101028.88
2023-01-04T19:07:00.205Z,101021.78
2023-01-04T19:09:28.183Z,101009.94
2023-01-04T19:11:56.160Z,101002.41
2023-01-04T19:14:24.131Z,100999.97
2023-01-04T19:16:53.192Z,100993.50
2023-01-04T19:19:21.337Z,100987.31
2023-01-04T19:21:50.645Z,100990.59
2023-01-04T19:24:18.589Z,100988.03
2023-01-04T19:26:46.615Z,100988.03
2023-01-04T19:29:14.609Z,100989.72
2023-01-04T19:31:42.551Z,100996.75
2023-01-04T19:34:10.733Z,100992.13
2023-01-04T19:36:38.727Z,100993.50
2023-01-04T19:39:09.408Z,100986.34
2023-01-04T19:41:38.319Z,100988.88
2023-01-04T19:44:07.341Z,100986.34
2023-01-04T19:46:35.373Z,100979.03
2023-01-04T19:49:03.406Z,100984.88
2023-01-04T19:51:31.362Z,100991.09
2023-01-04T19:53:59.299Z,100990.53
2023-01-04T19:56:28.631Z,100991.09
2023-01-04T19:58:56.540Z,100985.47
2023-01-04T20:01:24.595Z,100982.94
2023-01-04T20:03:53.187Z,100985.47
2023-01-04T20:06:21.439Z,100986.91
2023-01-04T20:08:49.389Z,100985.53
2023-01-04T20:11:17.341Z,100982.13
2023-01-04T20:13:46.615Z,100978.47
2023-01-04T20:16:14.561Z,100979.47
2023-01-04T20:18:42.605Z,100976.06
2023-01-04T20:21:11.505Z,100969.97
2023-01-04T20:23:39.590Z,100975.63
2023-01-04T20:26:11.411Z,100971.13
2023-01-04T20:28:41.864Z,100963.22
2023-01-04T20:31:12.717Z,100960.66
2023-01-04T20:33:40.816Z,100961.25
2023-01-04T20:36:09.899Z,100947.88
2023-01-04T20:38:40.220Z,100946.91
2023-01-04T20:41:08.636Z,100941.25
2023-01-04T20:43:37.185Z,100939.56
2023-01-04T20:46:05.691Z,100940.59
2023-01-04T20:48:35.085Z,100940.19
2023-01-04T20:51:06.952Z,100936.78
2023-01-04T20:53:36.217Z,100930.50
2023-01-04T20:56:08.391Z,100924.59
2023-01-04T20:58:36.360Z,100928.66
2023-01-04T21:01:05.517Z,100922.59
2023-01-04T21:03:35.074Z,100920.22
2023-01-04T21:06:03.495Z,100919.75
2023-01-04T21:08:31.502Z,100921.44
2023-01-04T21:10:59.455Z,100920.94
2023-01-04T21:13:28.283Z,100911.63
2023-01-04T21:15:56.284Z,100916.44
2023-01-04T21:18:24.373Z,100905.25
2023-01-04T21:20:53.729Z,100901.72
2023-01-04T21:23:25.536Z,100902.84
2023-01-04T21:25:53.553Z,100911.47
2023-01-04T21:28:22.344Z,100914.13
2023-01-04T21:30:50.396Z,100905.13
2023-01-04T21:33:18.345Z,100907.09
2023-01-04T21:35:46.305Z,100914.41
2023-01-04T21:38:15.667Z,100904.66
2023-01-04T21:40:43.649Z,100895.53
2023-01-04T21:43:15.821Z,100898.34
2023-01-04T21:45:43.733Z,100896.38
2023-01-04T21:48:11.707Z,100885.81
2023-01-04T21:50:39.644Z,100883.66
2023-01-04T21:53:07.596Z,100882.34
2023-01-04T21:55:36.954Z,100879.44
2023-01-04T21:58:04.912Z,100873.34
2023-01-04T22:00:32.862Z,100872.91
2023-01-04T22:03:00.902Z,100869.78
2023-01-04T22:05:28.857Z,100866.66
2023-01-04T22:07:56.796Z,100856.22
2023-01-04T22:10:24.779Z,100855.78
2023-01-04T22:12:54.091Z,100846.59
2023-01-04T22:15:22.073Z,100846.97
2023-01-04T22:17:51.365Z,100844.25
2023-01-04T22:20:19.398Z,100840.28
2023-01-04T22:22:47.345Z,100838.00
2023-01-04T22:25:15.363Z,100836.59
2023-01-04T22:27:43.345Z,100827.84
2023-01-04T22:30:13.632Z,100831.22
2023-01-04T22:32:41.583Z,100827.84
2023-01-04T22:35:10.135Z,100819.81
2023-01-04T22:37:38.052Z,100815.31
2023-01-04T22:40:07.075Z,100815.44
2023-01-04T22:42:35.019Z,100822.75
2023-01-04T22:45:07.918Z,100809.50
2023-01-04T22:47:40.409Z,100803.31
2023-01-04T22:50:08.940Z,100796.78
2023-01-04T22:52:36.881Z,100792.84
2023-01-04T22:55:05.072Z,100792.75
2023-01-04T22:57:33.002Z,100785.97
2023-01-04T23:00:00.961Z,100781.88
2023-01-04T23:02:28.945Z,100785.06
2023-01-04T23:04:58.257Z,100778.41
2023-01-04T23:07:26.184Z,100777.09
2023-01-04T23:09:54.090Z,100777.28
2023-01-04T23:12:22.044Z,100780.59
2023-01-04T23:14:49.986Z,100768.72
2023-01-04T23:17:17.970Z,100766.31
2023-01-04T23:19:45.938Z,100762.19
2023-01-04T23:22:15.233Z,100757.94
2023-01-04T23:24:43.154Z,100765.09
2023-01-04T23:27:11.123Z,100762.44
2023-01-04T23:29:39.075Z,100761.94
2023-01-04T23:32:07.445Z,100764.09
2023-01-04T23:34:35.425Z,100757.25
2023-01-04T23:37:03.367Z,100754.94
2023-01-04T23:39:32.672Z,100757.09
2023-01-04T23:42:00.667Z,100761.59
2023-01-04T23:44:30.961Z,100757.94
2023-01-04T23:46:59.539Z,100756.00
2023-01-04T23:49:28.214Z,100751.38
2023-01-04T23:51:56.139Z,100739.44
2023-01-04T23:54:24.290Z,100753.53
2023-01-04T23:56:53.835Z,100745.25
2023-01-04T23:59:22.150Z,100741.47
